KOZR

Cairns AAF (Fort Rucker) Airport

Fort Rucker/Ozark, Alabama, USA
METAR KOZR 190456Z AUTO 00000KT 10SM CLR 22/21 A2994 RMK AO2 SLP138 T02230214
Observed Flight Rules
Sep-19 @ 04:56 UTC (18 minutes ago) Visual Flight Rules
Visibility Clouds
10 miles
  • Clear skies
Temperatures Readings
Current 22°C / 72°F
Dewpoint 21°C / 70°F
Humidity 94%
Altimeter 29.94" Hg
Pressure 1013.8 hPa
Elevation 93
METAR KOZR 190456Z AUTO 00000KT 10SM CLR 22/21 A2994 RMK AO2 SLP138 T02230214
Observed Flight Rules
Sep-19 @ 04:56 UTC
(18 minutes ago)
VFR
Clouds
  • Clear skies
Temperature Dewpoint
22°C / 72°F 21°C / 70°F
Humidity Altimeter Pressure
94% 29.94" Hg 1013.8 hPa